Time;durP1;ratioP1;P1;durP2;ratioP2;P2;SDS_P1;SDS_P2;PMS_P1;PMS_P2;Temp;Humidity;BMP_temperature;BMP_pressure;BME280_temperature;BME280_humidity;BME280_pressure;Samples;Min_cycle;Max_cycle;Signal;HPM_P1;HPM_P2
2022/04/13 00:00:09;;;;;;;1.70;1.57;;;16.10;47.80;;;;;;916221;156;27463;-73
2022/04/13 00:02:35;;;;;;;1.60;1.50;;;16.10;47.50;;;;;;912399;156;27446;-73
2022/04/13 00:05:01;;;;;;;1.40;1.23;;;16.00;47.50;;;;;;921889;154;27376;-73
2022/04/13 00:07:28;;;;;;;1.63;1.53;;;16.00;47.60;;;;;;920892;156;27383;-74
2022/04/13 00:09:55;;;;;;;2.43;1.80;;;15.90;47.60;;;;;;912484;155;27389;-73
2022/04/13 00:12:21;;;;;;;1.90;1.60;;;15.90;47.70;;;;;;900447;156;27367;-73
2022/04/13 00:14:48;;;;;;;2.83;1.80;;;15.90;47.70;;;;;;904251;156;27401;-73
2022/04/13 00:17:14;;;;;;;1.50;1.23;;;15.80;47.80;;;;;;899695;156;27427;-74
2022/04/13 00:19:41;;;;;;;1.60;1.40;;;15.80;48.00;;;;;;889276;161;27429;-73
2022/04/13 00:22:07;;;;;;;1.20;1.20;;;15.70;48.10;;;;;;913923;155;27335;-73
2022/04/13 00:24:34;;;;;;;1.57;1.47;;;15.70;48.20;;;;;;906924;156;27448;-74
2022/04/13 00:27:00;;;;;;;1.53;1.43;;;15.60;48.30;;;;;;912186;156;27476;-73
2022/04/13 00:29:30;;;;;;;2.40;1.30;;;15.50;48.40;;;;;;913269;156;27504;-73
2022/04/13 00:31:54;;;;;;;2.40;1.20;;;15.50;48.50;;;;;;901050;156;27400;-73
2022/04/13 00:34:21;;;;;;;1.87;1.33;;;15.50;48.60;;;;;;903999;158;27466;-73
2022/04/13 00:36:47;;;;;;;2.13;1.93;;;15.40;48.60;;;;;;903999;158;27462;-73
2022/04/13 00:39:13;;;;;;;2.33;2.13;;;15.40;48.80;;;;;;902811;156;27506;-73
2022/04/13 00:41:40;;;;;;;2.43;1.97;;;15.30;48.90;;;;;;918956;156;27395;-73
2022/04/13 00:44:07;;;;;;;2.10;1.90;;;15.30;49.00;;;;;;917591;156;27447;-73
2022/04/13 00:46:33;;;;;;;2.50;1.77;;;15.20;49.00;;;;;;906281;156;27439;-73
2022/04/13 00:49:00;;;;;;;2.03;1.70;;;15.20;49.20;;;;;;905303;158;27402;-73
2022/04/13 00:51:26;;;;;;;2.30;2.07;;;15.20;49.40;;;;;;904925;156;27389;-74
2022/04/13 00:53:53;;;;;;;2.63;1.80;;;15.10;49.50;;;;;;905736;156;27426;-73
2022/04/13 00:56:24;;;;;;;2.30;2.10;;;15.10;49.60;;;;;;906158;156;27502;-74
2022/04/13 00:58:49;;;;;;;3.23;2.10;;;15.10;49.80;;;;;;909186;156;27317;-73
2022/04/13 01:01:15;;;;;;;2.20;2.00;;;15.00;49.80;;;;;;905037;157;27355;-74
2022/04/13 01:03:42;;;;;;;2.87;1.80;;;15.00;50.00;;;;;;890221;161;27483;-73
2022/04/13 01:06:08;;;;;;;2.30;2.10;;;15.00;50.10;;;;;;890866;157;27382;-73
2022/04/13 01:08:35;;;;;;;2.10;1.90;;;15.00;50.80;;;;;;890199;158;27381;-73
2022/04/13 01:11:02;;;;;;;2.53;1.90;;;15.00;50.30;;;;;;911200;156;27407;-73
2022/04/13 01:13:28;;;;;;;2.00;1.90;;;15.00;50.40;;;;;;909551;156;27471;-73
2022/04/13 01:15:55;;;;;;;2.50;2.30;;;15.00;50.30;;;;;;888994;158;27452;-73
2022/04/13 01:18:21;;;;;;;3.23;2.37;;;15.00;50.60;;;;;;893677;158;27427;-73
2022/04/13 01:20:54;;;;;;;3.80;2.90;;;15.00;50.40;;;;;;909210;156;27456;-73
2022/04/13 01:23:20;;;;;;;4.27;3.10;;;15.10;50.50;;;;;;905481;156;27341;-73
2022/04/13 01:25:50;;;;;;;4.30;2.67;;;15.10;50.50;;;;;;886566;159;27447;-73
2022/04/13 01:28:17;;;;;;;2.43;2.23;;;15.10;50.60;;;;;;890178;161;27908;-73
2022/04/13 01:30:46;;;;;;;3.37;2.23;;;15.10;50.60;;;;;;902512;158;27430;-74
2022/04/13 01:33:10;;;;;;;3.50;1.97;;;15.00;50.50;;;;;;905374;158;27950;-73
2022/04/13 01:35:36;;;;;;;3.30;2.00;;;15.10;50.60;;;;;;886026;161;27375;-73
2022/04/13 01:38:03;;;;;;;3.13;2.10;;;15.10;50.50;;;;;;888937;161;27505;-73
2022/04/13 01:40:29;;;;;;;4.93;2.33;;;15.10;50.60;;;;;;891921;161;27409;-73
2022/04/13 01:42:56;;;;;;;2.17;1.73;;;15.10;50.70;;;;;;888631;161;27425;-73
2022/04/13 01:45:23;;;;;;;2.53;1.80;;;15.10;50.70;;;;;;905869;157;27384;-73
2022/04/13 01:47:49;;;;;;;2.73;1.90;;;15.10;50.70;;;;;;907190;157;27418;-74
2022/04/13 01:50:16;;;;;;;1.90;1.70;;;15.10;50.70;;;;;;895021;157;27477;-73
2022/04/13 01:52:42;;;;;;;3.20;1.67;;;15.20;50.80;;;;;;879339;158;27553;-73
2022/04/13 01:55:09;;;;;;;2.27;1.60;;;15.20;50.80;;;;;;894212;157;27500;-74
2022/04/13 01:57:36;;;;;;;1.70;1.60;;;15.20;50.80;;;;;;898341;155;27490;-73
2022/04/13 02:00:02;;;;;;;1.70;1.60;;;15.20;50.80;;;;;;898802;158;27449;-74
2022/04/13 02:02:29;;;;;;;2.13;1.93;;;15.30;50.80;;;;;;897515;159;27490;-74
2022/04/13 02:04:55;;;;;;;2.03;1.83;;;15.20;50.70;;;;;;884537;158;27393;-73
2022/04/13 02:07:22;;;;;;;2.20;2.00;;;15.30;50.80;;;;;;908703;155;27477;-73
2022/04/13 02:09:49;;;;;;;1.80;1.70;;;15.30;50.80;;;;;;888160;159;27391;-73
2022/04/13 02:12:15;;;;;;;2.47;1.60;;;15.30;50.80;;;;;;903209;156;27412;-73
2022/04/13 02:14:42;;;;;;;1.33;1.23;;;15.40;50.90;;;;;;903508;157;27363;-74
2022/04/13 02:17:08;;;;;;;1.70;1.60;;;15.40;50.90;;;;;;881376;159;27413;-73
2022/04/13 02:19:35;;;;;;;1.77;1.57;;;15.40;50.80;;;;;;906354;157;27917;-74
2022/04/13 02:22:02;;;;;;;2.90;1.40;;;15.40;50.70;;;;;;904239;157;27445;-73
2022/04/13 02:24:28;;;;;;;2.03;1.70;;;15.40;50.70;;;;;;883102;162;27365;-73
2022/04/13 02:26:55;;;;;;;1.80;1.70;;;15.40;50.60;;;;;;894543;159;27496;-73
2022/04/13 02:29:21;;;;;;;3.73;1.43;;;15.50;50.60;;;;;;889867;157;27376;-73
2022/04/13 02:31:48;;;;;;;2.00;1.80;;;15.50;50.60;;;;;;906748;157;27343;-73
2022/04/13 02:34:17;;;;;;;1.80;1.30;;;15.50;50.50;;;;;;897595;160;27343;-73
2022/04/13 02:36:41;;;;;;;1.67;1.57;;;15.50;50.40;;;;;;885880;158;27392;-73
2022/04/13 02:39:08;;;;;;;1.90;1.73;;;15.50;50.40;;;;;;884824;161;27434;-73
2022/04/13 02:41:34;;;;;;;1.90;1.17;;;15.50;50.90;;;;;;895613;157;27454;-72
2022/04/13 02:44:01;;;;;;;1.63;1.50;;;15.60;50.30;;;;;;885861;158;27476;-74
2022/04/13 02:46:27;;;;;;;3.07;1.30;;;15.60;50.10;;;;;;900969;156;27399;-74
2022/04/13 02:48:54;;;;;;;2.03;1.50;;;15.60;50.10;;;;;;906240;156;27458;-74
2022/04/13 02:51:21;;;;;;;3.90;1.73;;;15.60;50.10;;;;;;908062;156;27359;-74
2022/04/13 02:53:47;;;;;;;1.47;1.30;;;15.60;50.00;;;;;;899259;155;27470;-74
2022/04/13 02:56:14;;;;;;;1.60;1.40;;;15.70;50.00;;;;;;914469;156;27508;-74
2022/04/13 02:58:40;;;;;;;1.93;1.50;;;15.70;50.00;;;;;;905763;158;27341;-74
2022/04/13 03:01:07;;;;;;;1.60;1.50;;;15.70;50.00;;;;;;905748;155;27312;-73
2022/04/13 03:03:34;;;;;;;1.50;1.40;;;15.70;49.90;;;;;;905755;156;27421;-75
2022/04/13 03:06:00;;;;;;;3.00;1.30;;;15.80;49.80;;;;;;906157;156;27458;-73
2022/04/13 03:08:27;;;;;;;2.63;1.60;;;15.80;49.80;;;;;;906387;156;27364;-73
2022/04/13 03:10:53;;;;;;;1.27;1.20;;;15.80;49.60;;;;;;916658;156;27526;-74
2022/04/13 03:13:20;;;;;;;1.70;1.40;;;15.80;49.50;;;;;;887833;161;27379;-73
2022/04/13 03:15:46;;;;;;;1.40;1.30;;;15.80;49.40;;;;;;904813;158;27394;-73
2022/04/13 03:18:13;;;;;;;1.57;1.47;;;15.80;49.30;;;;;;904645;158;27497;-73
2022/04/13 03:20:40;;;;;;;1.90;1.40;;;15.80;49.20;;;;;;904799;157;27386;-73
2022/04/13 03:23:06;;;;;;;2.53;1.40;;;15.80;49.20;;;;;;909602;157;27380;-73
2022/04/13 03:25:33;;;;;;;2.40;1.53;;;15.80;49.00;;;;;;905320;158;27480;-74
2022/04/13 03:28:00;;;;;;;1.50;1.40;;;15.90;49.00;;;;;;897390;158;27395;-74
2022/04/13 03:30:26;;;;;;;1.43;1.30;;;15.90;48.90;;;;;;905087;158;27442;-73
2022/04/13 03:32:53;;;;;;;4.27;1.60;;;15.90;48.80;;;;;;903432;158;27391;-73
2022/04/13 03:35:19;;;;;;;2.87;1.13;;;15.90;48.70;;;;;;918389;156;27386;-74
2022/04/13 03:37:46;;;;;;;1.50;1.07;;;15.90;48.60;;;;;;910292;156;27463;-73
2022/04/13 03:40:12;;;;;;;1.80;1.40;;;15.90;48.60;;;;;;901832;159;27402;-73
2022/04/13 03:42:39;;;;;;;1.30;1.20;;;15.90;48.50;;;;;;898372;158;28105;-73
2022/04/13 03:45:05;;;;;;;1.50;0.97;;;15.90;48.40;;;;;;899626;156;27480;-72
2022/04/13 03:47:32;;;;;;;1.33;1.23;;;15.90;48.30;;;;;;881269;161;27432;-73
2022/04/13 03:49:59;;;;;;;1.50;1.40;;;15.80;48.30;;;;;;881319;161;27494;-73
2022/04/13 03:52:25;;;;;;;1.20;1.10;;;15.80;48.80;;;;;;869831;161;27461;-73
2022/04/13 03:54:52;;;;;;;2.97;1.67;;;15.80;48.30;;;;;;896108;157;27476;-73
2022/04/13 03:57:18;;;;;;;2.20;1.70;;;15.70;49.00;;;;;;908673;157;27422;-73
2022/04/13 03:59:45;;;;;;;1.83;1.40;;;15.70;48.50;;;;;;900472;157;27426;-73
2022/04/13 04:02:14;;;;;;;6.37;1.63;;;15.60;48.60;;;;;;896132;159;27406;-74
2022/04/13 04:04:38;;;;;;;2.07;1.60;;;15.60;48.80;;;;;;879871;159;27468;-73
2022/04/13 04:07:05;;;;;;;1.63;1.53;;;15.60;48.90;;;;;;899557;157;27715;-73
2022/04/13 04:09:31;;;;;;;2.33;1.43;;;15.60;49.10;;;;;;893598;158;27474;-73
2022/04/13 04:11:58;;;;;;;2.40;1.73;;;15.50;49.20;;;;;;899913;157;27508;-73
2022/04/13 04:14:25;;;;;;;2.20;1.83;;;15.50;49.20;;;;;;885927;161;27896;-73
2022/04/13 04:16:51;;;;;;;1.97;1.80;;;15.50;49.40;;;;;;876304;161;27990;-73
2022/04/13 04:19:18;;;;;;;3.33;2.10;;;15.50;49.60;;;;;;886245;160;27863;-74
2022/04/13 04:21:44;;;;;;;1.97;1.87;;;15.40;49.60;;;;;;887157;161;27467;-73
2022/04/13 04:24:11;;;;;;;2.00;1.80;;;15.40;49.80;;;;;;891478;159;27486;-73
2022/04/13 04:26:38;;;;;;;2.50;1.80;;;15.40;49.90;;;;;;900152;159;27411;-73
2022/04/13 04:29:04;;;;;;;2.10;2.00;;;15.30;50.00;;;;;;897689;159;27356;-74
2022/04/13 04:34:15;;;;;;;2.37;2.07;;;15.30;50.10;;;;;;903697;157;27345;-73
2022/04/13 04:36:42;;;;;;;2.97;2.10;;;15.30;50.10;;;;;;888614;159;27470;-74
2022/04/13 04:39:09;;;;;;;3.00;1.90;;;15.20;50.20;;;;;;896791;159;28374;-73
2022/04/13 04:41:35;;;;;;;2.40;2.00;;;15.20;50.30;;;;;;888336;161;27418;-73
2022/04/13 04:44:02;;;;;;;2.47;1.57;;;15.20;50.40;;;;;;906371;157;27364;-73
2022/04/13 04:46:28;;;;;;;1.93;1.80;;;15.20;50.50;;;;;;900213;158;27378;-74
2022/04/13 04:48:55;;;;;;;2.27;1.60;;;15.20;50.50;;;;;;914690;154;27473;-73
2022/04/13 04:51:22;;;;;;;1.70;1.60;;;15.20;50.50;;;;;;918688;154;28127;-73
2022/04/13 04:53:48;;;;;;;3.77;2.10;;;15.10;50.50;;;;;;918217;155;27385;-73
2022/04/13 04:56:15;;;;;;;2.37;1.67;;;15.10;50.50;;;;;;913007;155;27530;-73
2022/04/13 04:58:41;;;;;;;1.83;1.67;;;15.10;50.50;;;;;;908348;158;27371;-73
2022/04/13 05:01:08;;;;;;;1.97;1.50;;;15.10;50.40;;;;;;908532;155;27407;-74
2022/04/13 05:03:35;;;;;;;2.30;1.80;;;15.10;50.30;;;;;;895804;158;27408;-73
2022/04/13 05:06:01;;;;;;;2.63;2.00;;;15.10;50.30;;;;;;892792;158;27562;-73
2022/04/13 05:08:28;;;;;;;3.47;1.63;;;15.10;50.20;;;;;;915359;155;27513;-73
2022/04/13 05:10:54;;;;;;;2.47;1.70;;;15.10;50.10;;;;;;900891;158;27425;-73
2022/04/13 05:13:21;;;;;;;2.10;1.90;;;15.10;50.10;;;;;;887597;157;27519;-73
2022/04/13 05:15:47;;;;;;;2.73;1.80;;;15.20;50.10;;;;;;911765;155;27392;-73
2022/04/13 05:18:14;;;;;;;2.03;1.93;;;15.20;50.00;;;;;;906062;158;27460;-74
2022/04/13 05:20:41;;;;;;;3.43;1.93;;;15.20;50.60;;;;;;910718;155;27441;-73
2022/04/13 05:23:07;;;;;;;2.40;1.80;;;15.30;50.00;;;;;;909137;155;27335;-73
2022/04/13 05:25:34;;;;;;;3.13;1.93;;;15.40;50.60;;;;;;902525;157;27398;-74
2022/04/13 05:28:00;;;;;;;1.70;1.60;;;15.50;50.10;;;;;;907541;155;27456;-73
2022/04/13 05:30:27;;;;;;;1.80;1.70;;;15.60;50.10;;;;;;897385;158;27373;-73
2022/04/13 05:32:56;;;;;;;2.00;1.63;;;15.60;50.10;;;;;;908238;156;27442;-73
2022/04/13 05:35:20;;;;;;;2.47;1.60;;;15.70;50.10;;;;;;895386;155;27547;-74
2022/04/13 05:37:47;;;;;;;2.07;1.70;;;15.80;50.20;;;;;;911278;155;27469;-74
2022/04/13 05:40:13;;;;;;;2.07;1.73;;;15.90;50.20;;;;;;917232;154;27364;-73
2022/04/13 05:42:40;;;;;;;2.60;1.90;;;16.00;50.20;;;;;;913908;156;27370;-73
2022/04/13 05:45:07;;;;;;;3.53;2.17;;;16.10;50.30;;;;;;920466;155;27886;-75
2022/04/13 05:47:34;;;;;;;2.80;1.90;;;16.20;50.30;;;;;;898898;156;27407;-73
2022/04/13 05:50:00;;;;;;;2.90;2.13;;;16.30;50.30;;;;;;894694;156;27477;-73
2022/04/13 05:52:27;;;;;;;2.13;1.90;;;16.50;50.40;;;;;;894735;159;27399;-74
2022/04/13 05:54:53;;;;;;;2.13;1.93;;;16.60;50.30;;;;;;893181;158;27445;-73
2022/04/13 05:57:20;;;;;;;4.03;1.80;;;16.80;50.50;;;;;;890135;161;27546;-73
2022/04/13 05:59:46;;;;;;;2.47;1.65;;;17.00;50.40;;;;;;900127;158;27387;-73
2022/04/13 06:02:13;;;;;;;3.45;2.08;;;17.20;50.40;;;;;;882243;160;27424;-75
2022/04/13 06:04:39;;;;;;;2.77;1.98;;;17.40;50.30;;;;;;878763;163;27473;-73
2022/04/13 06:07:06;;;;;;;2.92;1.95;;;17.60;50.20;;;;;;890198;158;27402;-73
2022/04/13 06:09:33;;;;;;;2.08;1.87;;;17.80;50.10;;;;;;883345;161;27506;-73
2022/04/13 06:11:59;;;;;;;2.92;2.10;;;18.00;49.90;;;;;;890186;161;27428;-74
2022/04/13 06:14:26;;;;;;;2.33;2.02;;;18.20;49.70;;;;;;878556;161;27405;-73
2022/04/13 06:16:52;;;;;;;2.05;1.77;;;18.50;49.50;;;;;;875354;161;27478;-74
2022/04/13 06:19:19;;;;;;;3.70;1.80;;;18.70;49.30;;;;;;890011;158;27436;-73
2022/04/13 06:21:46;;;;;;;1.98;1.85;;;18.90;49.20;;;;;;892714;158;27344;-73
2022/04/13 06:24:12;;;;;;;1.90;1.70;;;19.20;49.20;;;;;;883676;162;27417;-73
2022/04/13 06:26:39;;;;;;;1.75;1.65;;;19.50;49.00;;;;;;887915;162;27327;-73
2022/04/13 06:29:05;;;;;;;2.77;1.65;;;19.80;48.80;;;;;;890103;161;27389;-74
2022/04/13 06:31:32;;;;;;;4.53;1.92;;;20.10;48.50;;;;;;889794;159;28131;-73
2022/04/13 06:33:59;;;;;;;1.92;1.70;;;20.40;48.20;;;;;;890407;159;27406;-73
2022/04/13 06:36:25;;;;;;;1.98;1.60;;;20.80;47.90;;;;;;895613;158;27508;-73
2022/04/13 06:38:52;;;;;;;2.27;1.67;;;21.10;47.50;;;;;;900664;159;27311;-73
2022/04/13 06:41:21;;;;;;;1.72;1.62;;;21.40;47.20;;;;;;896013;158;27859;-73
2022/04/13 06:43:45;;;;;;;1.60;1.42;;;21.80;46.70;;;;;;901947;159;27379;-74
2022/04/13 06:46:11;;;;;;;2.12;1.60;;;22.20;46.30;;;;;;899695;157;27368;-73
2022/04/13 06:48:38;;;;;;;1.85;1.57;;;22.50;45.90;;;;;;907787;156;27466;-73
2022/04/13 06:51:05;;;;;;;2.72;1.52;;;22.80;45.60;;;;;;904659;155;27501;-73
2022/04/13 06:53:31;;;;;;;2.62;1.42;;;23.10;45.10;;;;;;911874;155;27382;-74
2022/04/13 06:55:58;;;;;;;2.90;1.82;;;23.50;44.70;;;;;;895682;159;27390;-73
2022/04/13 06:58:24;;;;;;;2.35;1.52;;;23.80;44.30;;;;;;897031;158;27462;-74
2022/04/13 07:00:51;;;;;;;1.55;1.45;;;24.10;43.90;;;;;;898146;156;28046;-74
2022/04/13 07:03:18;;;;;;;1.98;1.72;;;24.30;43.30;;;;;;909250;155;28092;-74
2022/04/13 07:05:44;;;;;;;2.00;1.72;;;24.60;43.00;;;;;;910124;155;27404;-74
2022/04/13 07:08:11;;;;;;;2.50;1.75;;;24.80;42.60;;;;;;904750;154;27399;-73
2022/04/13 07:10:37;;;;;;;1.98;1.70;;;25.10;42.40;;;;;;887221;158;27429;-73
2022/04/13 07:13:04;;;;;;;1.72;1.47;;;25.30;42.00;;;;;;889294;158;27395;-73
2022/04/13 07:15:31;;;;;;;2.40;1.82;;;25.60;41.90;;;;;;884817;161;27522;-73
2022/04/13 07:17:57;;;;;;;2.12;1.55;;;25.80;41.30;;;;;;904323;155;27990;-75
2022/04/13 07:20:24;;;;;;;3.35;1.60;;;26.00;40.90;;;;;;900616;156;27450;-74
2022/04/13 07:22:50;;;;;;;3.05;1.75;;;26.20;40.70;;;;;;894465;158;27509;-74
2022/04/13 07:25:20;;;;;;;1.67;1.57;;;26.40;40.50;;;;;;907525;155;27377;-74
2022/04/13 07:27:46;;;;;;;3.22;1.57;;;26.60;40.20;;;;;;893987;157;27456;-74
2022/04/13 07:30:13;;;;;;;1.90;1.57;;;26.80;40.00;;;;;;918613;155;27448;-74
2022/04/13 07:32:39;;;;;;;3.30;2.08;;;27.10;39.90;;;;;;908389;157;27328;-74
2022/04/13 07:35:06;;;;;;;3.77;2.02;;;27.30;39.60;;;;;;914171;155;27312;-75
2022/04/13 07:37:33;;;;;;;3.35;1.75;;;27.50;39.40;;;;;;906384;156;27402;-76
2022/04/13 07:39:59;;;;;;;2.55;2.00;;;27.80;39.20;;;;;;901975;156;27389;-75
2022/04/13 07:42:26;;;;;;;2.00;1.90;;;28.10;38.80;;;;;;892824;158;27398;-74
2022/04/13 07:44:52;;;;;;;2.45;1.60;;;28.30;38.50;;;;;;887061;157;27415;-74
2022/04/13 07:47:23;;;;;;;2.22;2.02;;;28.60;38.20;;;;;;885860;160;27500;-75
2022/04/13 07:49:46;;;;;;;1.75;1.40;;;28.80;38.10;;;;;;898967;157;27390;-74
2022/04/13 07:52:12;;;;;;;2.27;1.72;;;29.00;37.80;;;;;;905505;157;27749;-74
2022/04/13 07:54:39;;;;;;;2.10;1.90;;;29.30;37.60;;;;;;899694;156;27906;-75
2022/04/13 07:57:05;;;;;;;1.77;1.40;;;29.60;37.50;;;;;;889885;160;27414;-74
2022/04/13 07:59:32;;;;;;;3.15;1.72;;;29.90;36.70;;;;;;894077;157;27429;-74
2022/04/13 08:01:59;;;;;;;3.17;1.45;;;30.20;36.90;;;;;;913347;156;27452;-74
2022/04/13 08:04:25;;;;;;;1.50;1.40;;;30.40;36.40;;;;;;913290;155;27423;-74
2022/04/13 08:06:52;;;;;;;2.80;1.50;;;30.70;36.80;;;;;;896971;156;27454;-75
2022/04/13 08:09:18;;;;;;;1.67;1.52;;;30.90;35.80;;;;;;904964;158;27399;-74
2022/04/13 08:11:45;;;;;;;2.00;1.80;;;31.20;35.70;;;;;;898010;158;27475;-76
2022/04/13 08:14:11;;;;;;;2.47;1.70;;;31.50;35.30;;;;;;906475;157;27376;-74
2022/04/13 08:16:38;;;;;;;1.42;1.02;;;31.80;35.10;;;;;;885853;157;27472;-74
2022/04/13 08:19:05;;;;;;;2.10;1.52;;;32.10;34.80;;;;;;901837;157;27410;-75
2022/04/13 08:21:31;;;;;;;3.35;1.50;;;32.20;34.30;;;;;;896072;157;27412;-74
2022/04/13 08:23:58;;;;;;;2.33;1.47;;;32.40;33.90;;;;;;901250;158;27362;-75
2022/04/13 08:26:24;;;;;;;3.95;1.80;;;32.60;33.60;;;;;;895919;159;27397;-74
2022/04/13 08:28:51;;;;;;;1.70;1.60;;;32.70;33.50;;;;;;885810;159;27392;-74
2022/04/13 08:31:18;;;;;;;1.57;1.50;;;32.70;32.50;;;;;;901101;159;27440;-75
2022/04/13 08:33:46;;;;;;;1.55;1.45;;;32.90;33.10;;;;;;908006;157;27442;-74
2022/04/13 08:36:11;;;;;;;2.15;1.67;;;33.00;33.00;;;;;;910069;156;27466;-75
2022/04/13 08:38:37;;;;;;;2.40;1.62;;;33.10;32.40;;;;;;908150;156;27430;-74
2022/04/13 08:41:04;;;;;;;2.35;1.70;;;33.20;32.30;;;;;;912006;156;27323;-75
2022/04/13 08:43:39;;;;;;;2.55;2.12;;;33.30;31.80;;;;;;902885;156;27407;-75
2022/04/13 08:46:07;;;;;;;1.92;1.57;;;33.30;31.30;;;;;;887690;161;27373;-74
2022/04/13 08:48:32;;;;;;;2.02;1.80;;;33.20;30.90;;;;;;894865;158;27807;-75
2022/04/13 08:50:59;;;;;;;2.55;1.62;;;33.00;30.60;;;;;;900433;158;27387;-75
2022/04/13 08:53:29;;;;;;;2.30;1.80;;;32.70;30.80;;;;;;902779;155;27347;-74
2022/04/13 08:55:55;;;;;;;2.52;1.92;;;32.50;31.40;;;;;;915180;156;27414;-75
2022/04/13 08:58:41;;;;;;;1.98;1.72;;;32.30;31.00;;;;;;904522;156;27383;-74
2022/04/13 09:01:07;;;;;;;2.45;1.80;;;32.20;31.10;;;;;;908248;156;27504;-74
2022/04/13 09:03:43;;;;;;;2.27;1.45;;;32.20;31.40;;;;;;886804;160;27533;-74
2022/04/13 09:06:09;;;;;;;2.77;1.50;;;32.20;31.30;;;;;;911309;157;27480;-75
2022/04/13 09:08:36;;;;;;;2.08;1.62;;;32.30;31.10;;;;;;912997;157;27379;-74
2022/04/13 09:11:04;;;;;;;1.80;1.70;;;32.30;30.80;;;;;;900576;155;27347;-75
2022/04/13 09:13:29;;;;;;;2.20;1.70;;;32.20;30.60;;;;;;898353;156;27356;-75
2022/04/13 09:15:55;;;;;;;2.52;2.00;;;32.10;30.60;;;;;;893037;158;27777;-74
2022/04/13 09:18:22;;;;;;;2.37;1.80;;;32.00;30.70;;;;;;908027;157;27424;-75
2022/04/13 09:20:49;;;;;;;2.02;1.82;;;32.10;30.80;;;;;;903827;159;27487;-74
2022/04/13 09:23:15;;;;;;;5.28;1.52;;;32.10;30.80;;;;;;895444;158;27373;-74
2022/04/13 09:25:42;;;;;;;2.22;1.60;;;32.20;30.90;;;;;;900503;159;27490;-74
2022/04/13 09:28:08;;;;;;;1.77;1.67;;;32.30;31.00;;;;;;898425;157;28100;-74
2022/04/13 09:30:35;;;;;;;3.10;1.57;;;32.40;30.80;;;;;;905580;157;27387;-74
2022/04/13 09:33:02;;;;;;;2.85;1.90;;;32.60;30.80;;;;;;903668;156;27392;-74
2022/04/13 09:35:28;;;;;;;3.20;1.95;;;32.80;30.60;;;;;;905338;157;27381;-75
2022/04/13 09:37:55;;;;;;;2.15;1.90;;;33.00;30.40;;;;;;901459;157;27371;-75
2022/04/13 09:40:37;;;;;;;3.77;2.10;;;33.20;30.30;;;;;;890919;160;27461;-75
2022/04/13 09:43:06;;;;;;;2.80;1.98;;;33.40;30.30;;;;;;902334;156;27488;-74
2022/04/13 09:45:33;;;;;;;5.30;2.10;;;33.60;30.20;;;;;;914457;156;27373;-74
2022/04/13 09:47:59;;;;;;;3.87;2.20;;;33.80;30.20;;;;;;904257;156;27408;-75
2022/04/13 09:50:26;;;;;;;3.12;2.00;;;33.80;29.90;;;;;;899753;158;27505;-74
2022/04/13 09:52:52;;;;;;;2.52;2.30;;;33.90;29.80;;;;;;895711;159;27396;-74
2022/04/13 09:55:19;;;;;;;2.80;2.30;;;33.90;29.60;;;;;;885323;157;27545;-74
2022/04/13 09:57:45;;;;;;;5.28;1.85;;;33.90;29.40;;;;;;906678;157;27484;-74
2022/04/13 10:00:12;;;;;;;2.85;1.95;;;33.90;29.40;;;;;;899266;157;27413;-75
2022/04/13 10:02:39;;;;;;;3.87;2.70;;;33.80;29.30;;;;;;874976;163;27503;-74
2022/04/13 10:05:05;;;;;;;2.67;2.17;;;33.80;29.20;;;;;;904043;158;27391;-74
2022/04/13 10:07:32;;;;;;;2.70;2.00;;;33.80;29.20;;;;;;900059;158;27404;-74
2022/04/13 10:09:59;;;;;;;3.55;2.02;;;33.70;29.00;;;;;;879564;163;27519;-74
2022/04/13 10:12:25;;;;;;;3.90;2.27;;;33.70;29.00;;;;;;880376;160;27383;-76
2022/04/13 10:14:52;;;;;;;3.35;1.90;;;33.60;29.00;;;;;;881363;160;27549;-75
2022/04/13 10:17:20;;;;;;;2.40;2.20;;;33.50;28.90;;;;;;879329;160;27405;-74
2022/04/13 10:19:45;;;;;;;2.37;1.90;;;33.40;28.90;;;;;;886455;158;27445;-74
2022/04/13 10:22:11;;;;;;;4.15;2.40;;;33.30;29.00;;;;;;888247;161;27496;-75
2022/04/13 10:24:39;;;;;;;4.08;2.22;;;33.20;29.00;;;;;;890073;161;27495;-74
2022/04/13 10:27:05;;;;;;;3.20;2.45;;;33.20;29.00;;;;;;889065;158;27397;-74
2022/04/13 10:29:31;;;;;;;2.65;1.90;;;33.10;29.00;;;;;;889325;161;27420;-74
2022/04/13 10:32:04;;;;;;;4.33;2.60;;;33.00;29.00;;;;;;888229;158;27521;-74
2022/04/13 10:34:31;;;;;;;5.87;3.20;;;32.80;28.70;;;;;;883596;161;27404;-74
2022/04/13 10:36:57;;;;;;;3.15;2.85;;;32.60;28.50;;;;;;889959;159;27509;-75
2022/04/13 10:39:24;;;;;;;4.33;2.98;;;32.40;28.50;;;;;;892452;159;27400;-75
2022/04/13 10:41:50;;;;;;;3.45;2.83;;;32.10;28.50;;;;;;889643;159;27513;-74
2022/04/13 10:44:19;;;;;;;2.60;2.40;;;31.80;28.60;;;;;;889793;161;27416;-74
2022/04/13 10:46:48;;;;;;;6.40;2.87;;;31.60;28.70;;;;;;888671;161;27456;-74
2022/04/13 10:49:12;;;;;;;2.80;2.42;;;31.40;29.00;;;;;;886813;161;27533;-74
2022/04/13 10:51:39;;;;;;;2.35;2.15;;;31.20;29.20;;;;;;883993;159;27474;-74
2022/04/13 10:54:06;;;;;;;3.17;2.27;;;31.10;29.40;;;;;;886478;159;27413;-74
2022/04/13 10:56:32;;;;;;;3.10;1.87;;;31.00;29.40;;;;;;886492;159;27420;-74
2022/04/13 10:59:07;;;;;;;3.60;2.45;;;30.90;29.40;;;;;;900202;158;27427;-74
2022/04/13 11:01:49;;;;;;;5.20;2.35;;;30.90;29.50;;;;;;887588;161;27459;-75
2022/04/13 11:04:15;;;;;;;2.60;2.35;;;30.80;29.50;;;;;;888553;161;27464;-74
2022/04/13 11:06:43;;;;;;;3.40;2.52;;;30.70;29.40;;;;;;889542;159;27420;-75
2022/04/13 11:09:08;;;;;;;2.50;2.20;;;30.60;29.30;;;;;;889794;161;27432;-75
2022/04/13 11:11:38;;;;;;;3.00;2.70;;;30.50;29.50;;;;;;886875;158;27405;-76
2022/04/13 11:14:22;;;;;;;3.67;2.60;;;30.30;29.60;;;;;;889716;161;27515;-74
2022/04/13 11:16:51;;;;;;;4.25;2.72;;;30.20;29.80;;;;;;886527;158;27879;-74
2022/04/13 11:19:18;;;;;;;4.47;2.10;;;30.10;29.80;;;;;;889910;161;27495;-74
2022/04/13 11:21:54;;;;;;;3.52;2.47;;;30.00;29.90;;;;;;890847;158;27413;-74
2022/04/13 11:24:32;;;;;;;3.22;2.62;;;29.90;30.00;;;;;;888115;161;27448;-74
2022/04/13 11:26:58;;;;;;;3.10;2.40;;;29.80;30.00;;;;;;879836;161;27972;-74
2022/04/13 11:29:25;;;;;;;3.37;2.35;;;29.70;30.10;;;;;;890203;159;27435;-75
2022/04/13 11:32:00;;;;;;;3.33;2.33;;;29.60;30.20;;;;;;889166;161;27477;-74
2022/04/13 11:34:38;;;;;;;2.37;2.17;;;29.50;30.00;;;;;;887039;158;27424;-74
2022/04/13 11:37:05;;;;;;;3.10;2.80;;;29.40;30.20;;;;;;888565;161;27402;-74
2022/04/13 11:39:57;;;;;;;3.58;2.60;;;29.30;30.30;;;;;;894570;159;27396;-74
2022/04/13 11:42:34;;;;;;;3.10;2.80;;;29.20;30.40;;;;;;890538;159;27542;-74
2022/04/13 11:45:07;;;;;;;3.02;2.60;;;29.20;30.40;;;;;;890710;159;27534;-74
2022/04/13 11:47:40;;;;;;;4.55;2.40;;;29.10;30.40;;;;;;898949;159;27420;-74
2022/04/13 11:50:14;;;;;;;5.40;2.62;;;29.10;30.70;;;;;;893359;156;27535;-74
2022/04/13 11:52:44;;;;;;;4.50;2.83;;;29.00;30.70;;;;;;900549;159;27317;-73
2022/04/13 11:55:28;;;;;;;4.05;2.72;;;29.00;30.70;;;;;;901058;156;27500;-75
2022/04/13 11:58:10;;;;;;;7.28;3.25;;;28.90;30.60;;;;;;896425;159;27333;-74
2022/04/13 12:00:57;;;;;;;4.33;2.83;;;28.90;30.80;;;;;;890224;156;27511;-74
2022/04/13 12:03:23;;;;;;;6.42;2.85;;;28.80;30.90;;;;;;895711;157;27484;-74
2022/04/13 12:06:05;;;;;;;5.42;3.33;;;28.70;31.00;;;;;;903327;156;27326;-74
2022/04/13 12:08:31;;;;;;;3.47;2.75;;;28.70;31.10;;;;;;900216;156;27420;-74
2022/04/13 12:11:01;;;;;;;5.62;2.42;;;28.70;31.20;;;;;;892122;156;27355;-74
2022/04/13 12:13:27;;;;;;;2.90;2.58;;;28.70;31.20;;;;;;900920;159;27397;-74
2022/04/13 12:15:54;;;;;;;3.92;2.55;;;28.70;31.20;;;;;;900985;159;27458;-74
2022/04/13 12:18:23;;;;;;;3.45;3.05;;;28.80;31.20;;;;;;899696;159;27458;-74
2022/04/13 12:20:50;;;;;;;3.10;2.83;;;28.80;31.10;;;;;;895735;159;27364;-74
2022/04/13 12:23:19;;;;;;;3.10;2.80;;;28.80;31.20;;;;;;901017;159;27329;-76
2022/04/13 12:25:46;;;;;;;5.05;2.83;;;28.70;31.20;;;;;;894568;156;27364;-74
2022/04/13 12:28:13;;;;;;;3.15;2.85;;;28.70;31.30;;;;;;893000;158;28135;-75
2022/04/13 12:30:39;;;;;;;2.62;2.27;;;28.70;31.60;;;;;;899697;155;27372;-74
2022/04/13 12:33:12;;;;;;;3.60;2.35;;;28.70;31.70;;;;;;901227;159;27296;-74
2022/04/13 12:35:47;;;;;;;4.15;2.52;;;28.70;31.70;;;;;;900464;159;27376;-74
2022/04/13 12:38:29;;;;;;;2.85;2.42;;;28.80;31.90;;;;;;900731;157;27383;-74
2022/04/13 12:41:01;;;;;;;3.72;2.67;;;28.80;31.60;;;;;;894879;157;27246;-74
2022/04/13 12:43:28;;;;;;;5.22;2.15;;;28.90;31.80;;;;;;892239;156;27415;-74
2022/04/13 12:45:55;;;;;;;3.25;2.08;;;28.90;32.30;;;;;;900857;159;27374;-74
2022/04/13 12:48:24;;;;;;;2.92;2.17;;;28.80;31.50;;;;;;899968;159;27360;-74
2022/04/13 12:50:56;;;;;;;3.77;2.20;;;28.90;31.60;;;;;;901266;159;27365;-74